METAR Data
IDs: Format: Raw Decoded Include TAF

Data at: 0143 UTC 20 Jan 2022

VTUK 200100Z VRB02KT 9000 NSC 19/15 Q1015 NOSIG
VTUK 200000Z 08002KT 9000 NSC 18/14 Q1014 NOSIG
VTUK 192300Z VRB02KT 8000 NSC 18/14 Q1014 NOSIG
VTUK 192200Z 07003KT 8000 NSC 18/15 Q1013 NOSIG
VTUK 192100Z 07003KT 9000 NSC 18/15 Q1013 NOSIG
VTUK 192000Z 06004KT 9000 NSC 19/15 Q1014 NOSIG
VTUK 191900Z 05003KT 9000 NSC 20/16 Q1014 NOSIG
VTUK 191800Z 08004KT 050V120 9000 NSC 21/16 Q1014 NOSIG
VTUK 191700Z 08005KT 050V110 9000 NSC 22/16 Q1014 NOSIG
VTUK 191600Z 08005KT 050V130 9000 NSC 23/16 Q1013 NOSIG
VTUK 191500Z 03002KT 9000 NSC 22/16 Q1013 NOSIG
VTUK 191400Z 03001KT 9000 NSC 23/16 Q1013 NOSIG
VTUK 191300Z 00000KT 9000 NSC 24/16 Q1013 NOSIG
VTUK 191200Z 16002KT 9000 NSC 25/16 Q1012 NOSIG
VTUK 191100Z 07003KT 9999 FEW030 26/15 Q1012 NOSIG
VTUK 191000Z VRB04KT CAVOK 28/15 Q1011 NOSIG
VTUK 190900Z VRB04KT 9999 FEW035 28/15 Q1011 NOSIG
VTUK 190800Z 14004KT 080V250 9999 FEW035 28/15 Q1012 NOSIG
VTUK 190700Z VRB04KT 9999 FEW035 27/15 Q1013 NOSIG
VTUK 190600Z VRB05KT 9999 FEW035 26/14 Q1015 NOSIG
VTUK 190500Z VRB05KT CAVOK 26/14 Q1016 NOSIG
VTUK 190400Z 06007KT 020V170 CAVOK 25/14 Q1017 NOSIG
VTUK 190300Z VRB06KT 9000 NSC 23/14 Q1018 NOSIG
VTUK 190200Z 04005KT 360V090 9000 NSC 22/14 Q1018 NOSIG
VTUK 190100Z VRB02KT 8000 NSC 19/15 Q1018 NOSIG
VTUK 190000Z 34003KT 9000 NSC 16/14 Q1017 NOSIG
VTUK 182300Z 32002KT 9000 NSC 17/14 Q1016 NOSIG
VTUK 182200Z 34002KT 9000 NSC 17/14 Q1015 NOSIG
VTUK 182100Z 06003KT 9000 NSC 18/14 Q1015 NOSIG
VTUK 182000Z 07003KT 9000 NSC 19/14 Q1015 NOSIG
VTUK 181900Z 07005KT 030V100 9000 NSC 20/14 Q1016 NOSIG
VTUK 181800Z 07005KT 030V100 9000 NSC 20/14 Q1016 NOSIG
VTUK 181700Z 08006KT 020V130 9000 NSC 21/15 Q1016 NOSIG
VTUK 181600Z 08007KT 040V120 9000 NSC 22/15 Q1016 NOSIG
VTUK 181500Z 06005KT 030V090 9000 NSC 23/15 Q1016 NOSIG
VTUK 181400Z 06005KT 030V090 9000 NSC 24/15 Q1015 NOSIG

VTUD 200100Z 01003KT 340V040 9999 BKN045 20/15 Q1014 NOSIG
VTUD 200000Z VRB02KT CAVOK 18/15 Q1014 NOSIG
VTUD 192300Z 14005KT 9999 FEW040 BKN090 19/15 Q1013 NOSIG
VTUD 191200Z 08002KT CAVOK 23/14 Q1011 NOSIG
VTUD 191100Z 09003KT 020V120 CAVOK 27/14 Q1011 NOSIG
VTUD 191000Z 14005KT 050V190 CAVOK 29/14 Q1011 NOSIG
VTUD 190900Z VRB05KT 9999 FEW020 30/14 Q1011 NOSIG
VTUD 190800Z VRB06KT 9999 FEW020 30/14 Q1012 NOSIG
VTUD 190700Z 06007KT 360V140 CAVOK 29/14 Q1013 NOSIG
VTUD 190600Z 09006KT 340V140 CAVOK 29/14 Q1014 NOSIG
VTUD 190500Z VRB04KT CAVOK 28/13 Q1016 NOSIG
VTUD 190400Z 07004KT 010V150 CAVOK 25/13 Q1017 NOSIG
VTUD 190300Z 09006KT 040V140 CAVOK 25/13 Q1018 NOSIG
VTUD 190200Z 08005KT 030V120 CAVOK 22/12 Q1018 NOSIG
VTUD 190100Z 00000KT CAVOK 18/16 Q1017 NOSIG
VTUD 190000Z 00000KT CAVOK 15/14 Q1016 NOSIG
VTUD 182300Z 00000KT CAVOK 15/14 Q1016 NOSIG
VTUD 182200Z 00000KT CAVOK 15/14 Q1016 NOSIG

VTUL 200100Z 00000KT 9999 OVC030 18/17 Q1015 NOSIG
VTUL 200000Z 00000KT 9999 BKN030 17/16 Q1014 NOSIG
VTUL 192300Z VRB02KT 9999 FEW030 17/16 Q1013 NOSIG
VTUL 191200Z 00000KT 9999 FEW030 21/18 Q1011 NOSIG
VTUL 191100Z 00000KT 9999 FEW030 25/15 Q1011 NOSIG
VTUL 191000Z 12003KT 080V170 9999 FEW030 28/15 Q1011 NOSIG
VTUL 190900Z VRB03KT 9999 FEW030 28/15 Q1011 NOSIG
VTUL 190800Z 15005KT 100V210 9999 FEW030 28/15 Q1012 NOSIG
VTUL 190700Z VRB04KT 9999 FEW030 28/15 Q1013 NOSIG
VTUL 190600Z VRB05KT CAVOK 27/15 Q1014 NOSIG
VTUL 190500Z VRB05KT CAVOK 26/15 Q1016 NOSIG
VTUL 190400Z VRB03KT CAVOK 25/15 Q1017 NOSIG
VTUL 190300Z VRB04KT CAVOK 22/16 Q1018 NOSIG
VTUL 190200Z 20003KT 120V280 CAVOK 20/16 Q1018 NOSIG
VTUL 190100Z VRB02KT CAVOK 16/15 Q1017 NOSIG
VTUL 190000Z 20003KT CAVOK 14/14 Q1017 NOSIG
VTUL 182300Z 25002KT CAVOK 14/14 Q1016 NOSIG

VTUI 200100Z 14006KT 110V170 CAVOK 20/14 Q1014 NOSIG
VTUI 200000Z 18002KT CAVOK 16/14 Q1014 NOSIG
VTUI 191200Z 10008KT CAVOK 25/15 Q1012 NOSIG
VTUI 191100Z 12007KT CAVOK 26/17 Q1012 NOSIG
VTUI 191000Z 13006KT CAVOK 27/16 Q1011 NOSIG
VTUI 190900Z 14008KT 100V160 CAVOK 28/14 Q1011 NOSIG
VTUI 190800Z 14006KT 090V170 CAVOK 27/14 Q1012 NOSIG
VTUI 190600Z 10005KT 050V150 CAVOK 26/14 Q1014 NOSIG
VTUI 190500Z 15004KT 070V230 CAVOK 25/14 Q1016 NOSIG
VTUI 190400Z VRB04KT CAVOK 22/13 Q1017 NOSIG
VTUI 190300Z 11006KT 070V140 CAVOK 21/14 Q1018 NOSIG
VTUI 190200Z 13006KT 090V200 CAVOK 20/14 Q1018 NOSIG
VTUI 190100Z 13005KT 090V160 CAVOK 18/13 Q1018 NOSIG
VTUI 190000Z 00000KT CAVOK 16/13 Q1016 NOSIG

VTUW 200100Z 17004KT 140V200 7000 NSC 18/15 Q1014 NOSIG
VTUW 200000Z 21001KT 7000 FEW040 14/14 Q1014 NOSIG
VTUW 191300Z 12009KT 8000 NSC 21/14 Q1014 NOSIG
VTUW 191200Z 12012KT 8000 NSC 22/14 Q1013 NOSIG
VTUW 191100Z 13013KT CAVOK 24/15 Q1012 NOSIG
VTUW 191000Z 12012KT 9999 FEW040 27/15 Q1012 NOSIG
VTUW 190900Z 13010KT 080V160 9999 FEW040 28/15 Q1012 NOSIG
VTUW 190800Z 14007KT 070V170 CAVOK 28/14 Q1012 NOSIG
VTUW 190700Z 12007KT 070V170 CAVOK 27/14 Q1013 NOSIG
VTUW 190600Z 12009KT 070V160 CAVOK 26/14 Q1014 NOSIG
VTUW 190500Z VRB07KT 9999 FEW040 25/14 Q1016 NOSIG
VTUW 190400Z 10006KT 040V160 9999 FEW040 23/13 Q1017 NOSIG
VTUW 190300Z 08004KT 330V130 9999 FEW040 22/13 Q1018 NOSIG
VTUW 190200Z VRB03KT CAVOK 20/14 Q1018 NOSIG
VTUW 190100Z VRB02KT CAVOK 17/14 Q1018 NOSIG
VTUW 190000Z 25003KT 9999 FEW040 14/14 Q1017 NOSIG